createdAt,value
2019-05-22T00:02:26.484Z,43.70
2019-05-22T00:04:58.268Z,47.78
2019-05-22T00:07:28.602Z,45.55
2019-05-22T00:09:58.759Z,45.20
2019-05-22T00:12:29.125Z,46.55
2019-05-22T00:14:58.475Z,45.83
2019-05-22T00:17:30.879Z,42.17
2019-05-22T00:20:03.423Z,44.70
2019-05-22T00:22:33.566Z,43.30
2019-05-22T00:25:05.007Z,45.78
2019-05-22T00:27:35.079Z,43.42
2019-05-22T00:30:06.620Z,43.33
2019-05-22T00:32:37.266Z,48.98
2019-05-22T00:35:08.875Z,45.78
2019-05-22T00:37:40.314Z,42.13
2019-05-22T00:40:12.091Z,42.27
2019-05-22T00:42:42.992Z,46.35
2019-05-22T00:45:14.563Z,45.33
2019-05-22T00:47:44.624Z,48.05
2019-05-22T00:50:16.563Z,46.92
2019-05-22T00:55:37.107Z,49.00
2019-05-22T00:58:10.218Z,51.23
2019-05-22T01:00:43.140Z,57.33
2019-05-22T01:03:14.488Z,55.28
2019-05-22T01:05:44.800Z,56.00
2019-05-22T01:08:15.868Z,54.38
2019-05-22T01:10:47.753Z,54.20
2019-05-22T01:15:48.240Z,53.48
2019-05-22T01:18:18.836Z,53.00
2019-05-22T01:20:49.865Z,53.95
2019-05-22T01:23:21.556Z,53.30
2019-05-22T01:25:51.991Z,52.90
2019-05-22T01:28:21.758Z,55.23
2019-05-22T01:30:58.799Z,58.42
2019-05-22T01:33:45.744Z,56.70
2019-05-22T01:36:17.092Z,57.93
2019-05-22T01:38:48.100Z,50.50
2019-05-22T01:41:27.566Z,53.65
2019-05-22T01:43:59.507Z,57.62
2019-05-22T01:46:32.606Z,55.60
2019-05-22T01:49:04.036Z,52.38
2019-05-22T01:51:34.115Z,58.92
2019-05-22T01:54:05.842Z,52.85
2019-05-22T01:56:35.839Z,62.58
2019-05-22T01:59:07.155Z,60.12
2019-05-22T02:01:37.630Z,60.95
2019-05-22T02:04:07.920Z,55.67
2019-05-22T02:06:37.755Z,56.50
2019-05-22T02:09:17.103Z,65.83
2019-05-22T02:12:00.508Z,65.00
2019-05-22T02:14:30.672Z,60.58
2019-05-22T02:17:01.316Z,60.08
2019-05-22T02:19:32.862Z,59.73
2019-05-22T02:22:04.341Z,58.75
2019-05-22T02:24:34.036Z,61.53
2019-05-22T02:27:05.080Z,60.30
2019-05-22T02:29:35.824Z,57.10
2019-05-22T02:32:07.101Z,55.52
2019-05-22T02:34:38.959Z,59.40
2019-05-22T02:37:09.666Z,56.50
2019-05-22T02:39:41.286Z,59.90
2019-05-22T02:42:23.461Z,59.38
2019-05-22T02:47:23.623Z,65.28
2019-05-22T02:49:54.500Z,58.17
2019-05-22T02:52:24.123Z,52.85
2019-05-22T02:54:54.014Z,58.87
2019-05-22T02:57:26.466Z,57.62
2019-05-22T02:59:57.167Z,62.35
2019-05-22T03:02:28.106Z,64.53
2019-05-22T03:05:03.429Z,58.17
2019-05-22T03:07:33.274Z,62.50
2019-05-22T03:10:03.378Z,59.40
2019-05-22T03:12:34.599Z,60.43
2019-05-22T03:15:07.458Z,63.75
2019-05-22T03:17:38.785Z,73.33
2019-05-22T03:20:12.923Z,68.15
2019-05-22T03:23:09.807Z,62.05
2019-05-22T03:25:40.454Z,67.87
2019-05-22T03:28:11.028Z,63.78
2019-05-22T03:30:44.009Z,62.50
2019-05-22T03:33:14.656Z,66.62
2019-05-22T03:35:47.043Z,72.42
2019-05-22T03:38:19.212Z,56.53
2019-05-22T03:40:52.179Z,67.90
2019-05-22T03:43:28.103Z,61.88
2019-05-22T03:45:59.596Z,76.33
2019-05-22T03:48:35.062Z,68.35
2019-05-22T03:51:12.414Z,57.65
2019-05-22T03:53:43.918Z,62.27
2019-05-22T03:56:15.208Z,59.55
2019-05-22T03:58:46.046Z,70.83
2019-05-22T04:01:15.760Z,67.50
2019-05-22T04:03:46.790Z,63.60
2019-05-22T04:06:17.556Z,58.90
2019-05-22T04:08:49.567Z,68.17
2019-05-22T04:11:18.909Z,75.15
2019-05-22T04:13:49.075Z,53.98
2019-05-22T04:16:26.822Z,59.08
2019-05-22T04:18:57.970Z,62.23
2019-05-22T04:21:27.477Z,63.87
2019-05-22T04:23:57.692Z,59.33
2019-05-22T04:26:28.401Z,54.60
2019-05-22T04:28:57.805Z,61.02
2019-05-22T04:31:33.037Z,59.53
2019-05-22T04:34:02.463Z,54.27
2019-05-22T04:36:32.243Z,51.45
2019-05-22T04:39:07.388Z,50.40
2019-05-22T04:41:37.109Z,60.15
2019-05-22T04:44:06.816Z,55.63
2019-05-22T04:46:36.177Z,57.48
2019-05-22T04:49:05.797Z,53.83
2019-05-22T04:51:36.072Z,64.62
2019-05-22T04:54:07.139Z,56.80
2019-05-22T04:56:36.628Z,64.65
2019-05-22T04:59:06.691Z,65.17
2019-05-22T05:01:37.355Z,50.85
2019-05-22T05:04:07.019Z,50.80
2019-05-22T05:06:37.730Z,48.05
2019-05-22T05:09:10.247Z,54.13
2019-05-22T05:11:40.605Z,53.30
2019-05-22T05:14:10.019Z,71.00
2019-05-22T05:16:39.388Z,61.40
2019-05-22T05:19:08.816Z,55.90
2019-05-22T05:21:38.834Z,58.30
2019-05-22T05:24:08.204Z,57.30
2019-05-22T07:08:22.795Z,129.47
2019-05-22T07:10:52.182Z,129.72
2019-05-22T07:13:22.248Z,132.18
2019-05-22T07:15:52.225Z,155.55
2019-05-22T07:18:24.120Z,133.60
2019-05-22T07:20:54.628Z,150.07
2019-05-22T07:23:25.851Z,132.63
2019-05-22T07:25:56.656Z,127.27
2019-05-22T07:28:26.033Z,121.45
2019-05-22T07:30:56.013Z,130.12
2019-05-22T07:33:25.883Z,138.88
2019-05-22T07:36:15.892Z,130.10
2019-05-22T07:38:26.932Z,111.95
2019-05-22T07:40:56.602Z,108.45
2019-05-22T07:43:26.303Z,122.07
2019-05-22T07:45:57.785Z,115.28
2019-05-22T07:48:28.003Z,104.87
2019-05-22T07:50:58.227Z,121.72
2019-05-22T07:53:28.461Z,110.65
2019-05-22T07:55:59.553Z,107.22
2019-05-22T07:58:31.247Z,95.12
2019-05-22T08:01:01.744Z,101.47
2019-05-22T08:03:31.966Z,95.42
2019-05-22T08:06:01.694Z,90.92
2019-05-22T08:08:33.094Z,89.40
2019-05-22T08:11:04.604Z,93.95
2019-05-22T08:13:35.443Z,80.17
2019-05-22T08:16:05.629Z,88.75
2019-05-22T08:18:36.878Z,80.17
2019-05-22T08:21:08.863Z,87.92
2019-05-22T08:23:38.539Z,91.43
2019-05-22T08:26:10.687Z,78.02
2019-05-22T08:28:41.062Z,90.55
2019-05-22T08:31:12.690Z,84.72
2019-05-22T08:33:42.457Z,85.77
2019-05-22T08:36:12.570Z,101.60
2019-05-22T08:38:43.560Z,99.70
2019-05-22T08:41:16.703Z,94.67
2019-05-22T08:44:13.648Z,94.50
2019-05-22T08:46:19.457Z,108.35
2019-05-22T08:48:49.722Z,98.25
2019-05-22T08:51:19.949Z,99.40
2019-05-22T08:53:49.688Z,109.12
2019-05-22T08:56:20.087Z,102.78
2019-05-22T08:58:51.237Z,90.55
2019-05-22T09:01:21.090Z,91.50
2019-05-22T09:03:52.340Z,97.78
2019-05-22T09:06:23.320Z,87.67
2019-05-22T09:08:52.755Z,91.03
2019-05-22T09:11:23.176Z,95.95
2019-05-22T09:13:52.699Z,96.90
2019-05-22T09:16:22.367Z,95.25
2019-05-22T09:18:52.511Z,102.22
2019-05-22T09:21:22.411Z,102.75
2019-05-22T09:23:51.826Z,75.78
2019-05-22T09:26:23.244Z,81.25
2019-05-22T09:28:52.931Z,91.85
2019-05-22T09:31:22.368Z,87.85
2019-05-22T09:33:51.784Z,68.55
2019-05-22T09:36:21.187Z,68.25
2019-05-22T09:38:52.523Z,73.67
2019-05-22T09:41:22.169Z,65.90
2019-05-22T09:43:51.532Z,59.42
2019-05-22T09:46:21.023Z,59.08
2019-05-22T09:48:50.350Z,59.48
2019-05-22T09:51:20.092Z,56.63
2019-05-22T09:53:51.270Z,59.65
2019-05-22T09:56:21.479Z,55.08
2019-05-22T09:58:51.136Z,59.50
2019-05-22T10:01:21.662Z,49.67
2019-05-22T10:03:51.670Z,54.40
2019-05-22T10:06:21.857Z,57.33
2019-05-22T10:08:51.312Z,63.23
2019-05-22T10:11:21.447Z,56.23
2019-05-22T10:13:51.397Z,65.03
2019-05-22T10:16:20.777Z,58.00
2019-05-22T10:18:52.974Z,63.83
2019-05-22T10:21:22.341Z,71.85
2019-05-22T10:23:52.567Z,60.50
2019-05-22T10:26:22.437Z,53.30
2019-05-22T10:28:52.177Z,55.60
2019-05-22T10:31:22.527Z,55.25
2019-05-22T10:33:52.313Z,57.08
2019-05-22T10:36:21.895Z,66.70
2019-05-22T10:38:51.448Z,51.08
2019-05-22T10:41:21.119Z,49.40
2019-05-22T10:43:50.852Z,52.45
2019-05-22T10:46:20.563Z,52.33
2019-05-22T10:48:49.915Z,52.78
2019-05-22T10:51:19.359Z,52.13
2019-05-22T10:53:49.233Z,52.85
2019-05-22T10:56:18.820Z,60.33
2019-05-22T10:58:48.198Z,67.87
2019-05-22T11:01:17.801Z,59.27
2019-05-22T11:03:47.676Z,71.60
2019-05-22T11:06:18.790Z,71.05
2019-05-22T11:09:09.871Z,65.92
2019-05-22T11:14:19.679Z,70.83
2019-05-22T11:16:49.032Z,74.80
2019-05-22T11:19:19.172Z,71.47
2019-05-22T11:21:48.552Z,70.85
2019-05-22T11:24:18.228Z,59.67
2019-05-22T11:26:47.591Z,60.98
2019-05-22T11:29:17.127Z,65.05
2019-05-22T11:31:46.910Z,65.22
2019-05-22T11:34:16.509Z,53.63
2019-05-22T11:36:45.926Z,60.88
2019-05-22T11:39:17.231Z,66.28
2019-05-22T11:41:47.584Z,68.55
2019-05-22T11:44:17.121Z,61.85
2019-05-22T11:46:46.555Z,52.10
2019-05-22T11:49:15.950Z,67.17
2019-05-22T11:51:45.763Z,65.28
2019-05-22T11:54:15.803Z,57.40
2019-05-22T11:56:45.458Z,63.05
2019-05-22T11:59:15.297Z,58.92
2019-05-22T12:01:44.894Z,62.67
2019-05-22T12:04:15.147Z,48.73
2019-05-22T12:06:45.279Z,57.53
2019-05-22T12:09:14.775Z,57.98
2019-05-22T12:11:44.156Z,65.42
2019-05-22T12:14:14.533Z,56.50
2019-05-22T12:16:44.424Z,53.08
2019-05-22T12:19:14.301Z,62.88
2019-05-22T12:21:43.777Z,60.75
2019-05-22T12:24:26.025Z,52.65
2019-05-22T12:26:44.530Z,51.88
2019-05-22T12:29:17.179Z,46.37
2019-05-22T12:31:46.067Z,53.05
2019-05-22T12:34:16.112Z,54.50
2019-05-22T12:36:45.653Z,55.65
2019-05-22T12:39:15.635Z,53.45
2019-05-22T12:41:47.196Z,60.75
2019-05-22T12:44:17.081Z,51.58
2019-05-22T12:46:46.580Z,54.65
2019-05-22T12:49:16.264Z,51.68
2019-05-22T12:51:47.594Z,46.80
2019-05-22T12:54:17.536Z,46.02
2019-05-22T12:56:46.866Z,41.83
2019-05-22T12:59:16.651Z,42.88
2019-05-22T13:02:07.320Z,37.93
2019-05-22T13:04:37.305Z,41.90
2019-05-22T13:07:08.216Z,45.20
2019-05-22T13:09:38.245Z,44.83
2019-05-22T13:12:09.907Z,44.93
2019-05-22T13:14:39.532Z,43.25
2019-05-22T13:17:12.702Z,37.28
2019-05-22T13:19:43.672Z,41.58
2019-05-22T13:22:16.671Z,48.50
2019-05-22T13:24:46.212Z,40.88
2019-05-22T13:27:17.745Z,44.27
2019-05-22T13:29:49.447Z,45.80
2019-05-22T13:32:19.920Z,46.33
2019-05-22T13:34:50.153Z,42.88
2019-05-22T13:37:19.591Z,39.70
2019-05-22T13:39:49.019Z,39.53
2019-05-22T13:42:18.516Z,38.20
2019-05-22T13:44:48.117Z,41.85
2019-05-22T13:47:18.272Z,43.02
2019-05-22T13:49:48.092Z,45.20
2019-05-22T13:52:22.835Z,38.00
2019-05-22T13:54:52.500Z,34.60
2019-05-22T13:57:22.475Z,35.25
2019-05-22T13:59:52.154Z,35.10
2019-05-22T14:02:21.875Z,44.15
2019-05-22T14:04:51.213Z,40.08
2019-05-22T14:07:20.649Z,34.08
2019-05-22T14:09:50.660Z,38.20
2019-05-22T14:12:20.271Z,35.75
2019-05-22T14:14:49.692Z,35.10
2019-05-22T14:17:19.108Z,28.92
2019-05-22T14:19:48.660Z,33.58
2019-05-22T14:22:18.143Z,38.95
2019-05-22T14:24:47.654Z,39.13
2019-05-22T14:27:17.112Z,41.45
2019-05-22T14:29:46.471Z,47.55
2019-05-22T14:32:17.099Z,46.25
2019-05-22T14:34:46.614Z,39.80
2019-05-22T14:37:16.312Z,46.92
2019-05-22T14:39:45.960Z,45.92
2019-05-22T14:42:17.442Z,41.35
2019-05-22T14:44:47.092Z,45.75
2019-05-22T14:47:17.085Z,43.42
2019-05-22T14:49:47.362Z,41.88
2019-05-22T14:52:17.284Z,45.08
2019-05-22T14:54:47.091Z,40.75
2019-05-22T14:57:17.423Z,47.10
2019-05-22T14:59:47.923Z,62.17
2019-05-22T15:02:17.499Z,55.30
2019-05-22T15:04:47.314Z,53.87
2019-05-22T15:07:17.727Z,54.88
2019-05-22T15:09:47.379Z,56.42
2019-05-22T15:12:16.929Z,57.80
2019-05-22T15:14:46.352Z,51.55
2019-05-22T15:17:31.913Z,52.85
2019-05-22T15:19:48.602Z,56.10
2019-05-22T15:22:18.226Z,54.55
2019-05-22T15:24:47.828Z,46.85
2019-05-22T15:27:18.111Z,60.58
2019-05-22T15:29:47.524Z,68.20
2019-05-22T15:32:17.522Z,56.92
2019-05-22T15:34:47.163Z,71.75
2019-05-22T15:37:21.158Z,65.17
2019-05-22T15:39:50.603Z,66.15
2019-05-22T15:42:37.624Z,71.42
2019-05-22T15:45:10.840Z,62.75
2019-05-22T15:47:54.749Z,65.08
2019-05-22T15:50:17.527Z,72.22
2019-05-22T15:52:54.654Z,72.15
2019-05-22T15:55:26.419Z,63.92
2019-05-22T15:57:59.566Z,73.00
2019-05-22T16:00:32.410Z,77.27
2019-05-22T16:03:18.419Z,69.27
2019-05-22T16:05:48.217Z,68.00
2019-05-22T16:08:17.976Z,64.62
2019-05-22T16:10:50.024Z,61.13
2019-05-22T16:13:22.736Z,85.25
2019-05-22T16:15:54.711Z,67.60
2019-05-22T16:18:30.239Z,76.90
2019-05-22T16:21:04.790Z,62.03
2019-05-22T16:23:37.398Z,72.70
2019-05-22T16:26:09.037Z,66.42
2019-05-22T16:28:40.784Z,58.23
2019-05-22T16:31:12.508Z,62.10
2019-05-22T16:33:44.407Z,66.90
2019-05-22T16:36:14.949Z,61.97
2019-05-22T16:38:46.189Z,59.95
2019-05-22T16:41:16.984Z,57.23
2019-05-22T16:43:50.040Z,65.87
2019-05-22T16:46:20.458Z,63.23
2019-05-22T16:48:50.430Z,63.30
2019-05-22T16:51:22.377Z,58.42
2019-05-22T16:53:55.846Z,60.28
2019-05-22T16:56:26.306Z,58.63
2019-05-22T16:58:56.484Z,64.35
2019-05-22T17:01:27.921Z,61.23
2019-05-22T17:04:02.627Z,56.55
2019-05-22T17:06:34.582Z,59.83
2019-05-22T17:11:34.978Z,60.58
2019-05-22T17:14:06.846Z,65.03
2019-05-22T17:19:25.561Z,57.55
2019-05-22T17:21:43.562Z,53.73
2019-05-22T17:24:14.266Z,55.45
2019-05-22T17:26:44.656Z,58.63
2019-05-22T17:29:15.567Z,57.43
2019-05-22T17:31:45.612Z,52.55
2019-05-22T17:34:31.768Z,58.73
2019-05-22T17:37:04.596Z,56.90
2019-05-22T17:39:36.503Z,56.40
2019-05-22T17:42:09.056Z,58.23
2019-05-22T17:44:42.172Z,57.05
2019-05-22T17:47:12.397Z,62.93
2019-05-22T17:49:42.662Z,59.53
2019-05-22T17:52:13.373Z,57.75
2019-05-22T17:54:45.447Z,61.65
2019-05-22T17:57:15.428Z,65.00
2019-05-22T17:59:45.229Z,64.20
2019-05-22T18:02:16.501Z,59.80
2019-05-22T18:04:46.015Z,63.92
2019-05-22T18:07:15.443Z,65.03
2019-05-22T18:09:45.193Z,68.35
2019-05-22T18:12:17.234Z,70.67
2019-05-22T18:14:48.031Z,72.70
2019-05-22T18:17:17.842Z,67.97
2019-05-22T18:19:47.271Z,67.60
2019-05-22T18:22:18.389Z,66.50
2019-05-22T18:24:47.759Z,71.25
2019-05-22T18:27:17.486Z,60.10
2019-05-22T18:29:46.830Z,61.63
2019-05-22T18:32:16.498Z,66.10
2019-05-22T18:34:45.853Z,64.05
2019-05-22T18:37:15.231Z,70.50
2019-05-22T18:39:44.659Z,56.63
2019-05-22T18:42:15.274Z,62.83
2019-05-22T18:44:44.640Z,60.90
2019-05-22T18:47:14.267Z,63.08
2019-05-22T18:49:43.770Z,69.00
2019-05-22T18:52:13.292Z,70.03
2019-05-22T18:54:42.630Z,85.30
2019-05-22T18:57:11.988Z,83.80
2019-05-22T18:59:41.360Z,82.72
2019-05-22T19:02:10.876Z,75.60
2019-05-22T19:04:40.382Z,64.20
2019-05-22T19:07:10.111Z,64.77
2019-05-22T19:09:39.650Z,65.28
2019-05-22T19:12:10.161Z,67.37
2019-05-22T19:14:39.610Z,70.22
2019-05-22T19:17:09.425Z,69.90
2019-05-22T19:19:38.929Z,66.82
2019-05-22T19:22:08.435Z,73.83
2019-05-22T19:24:37.960Z,73.05
2019-05-22T19:27:07.359Z,71.42
2019-05-22T19:29:36.891Z,70.35
2019-05-22T19:32:06.293Z,64.62
2019-05-22T19:34:35.828Z,65.30
2019-05-22T19:37:05.323Z,69.47
2019-05-22T19:39:35.828Z,63.02
2019-05-22T19:42:05.869Z,60.67
2019-05-22T19:44:35.412Z,64.58
2019-05-22T19:47:05.367Z,62.35
2019-05-22T19:49:35.037Z,55.10
2019-05-22T19:52:06.747Z,58.50
2019-05-22T19:54:36.657Z,64.32
2019-05-22T19:57:06.449Z,64.72
2019-05-22T19:59:36.372Z,71.37
2019-05-22T20:02:05.914Z,64.55
2019-05-22T20:04:36.065Z,63.42
2019-05-22T20:07:07.492Z,59.73
2019-05-22T20:09:38.920Z,64.95
2019-05-22T20:12:09.170Z,61.63
2019-05-22T20:14:39.049Z,57.80
2019-05-22T20:17:08.923Z,57.35
2019-05-22T20:19:38.336Z,60.83
2019-05-22T20:22:08.441Z,61.45
2019-05-22T20:24:38.136Z,58.90
2019-05-22T20:27:09.763Z,56.55
2019-05-22T20:32:12.013Z,59.23
2019-05-22T20:34:41.900Z,57.00
2019-05-22T20:37:11.276Z,56.30
2019-05-22T20:39:41.069Z,50.48
2019-05-22T20:42:10.664Z,48.25
2019-05-22T20:44:40.035Z,53.25
2019-05-22T20:47:10.906Z,49.48
2019-05-22T20:49:43.896Z,59.20
2019-05-22T20:52:15.915Z,51.63
2019-05-22T20:54:47.095Z,52.60
2019-05-22T20:57:19.872Z,52.13
2019-05-22T20:59:48.192Z,49.60
2019-05-22T21:02:19.870Z,49.38
2019-05-22T21:04:51.458Z,47.80
2019-05-22T21:07:27.510Z,47.53
2019-05-22T21:09:57.227Z,45.85
2019-05-22T21:12:27.395Z,45.20
2019-05-22T21:15:09.978Z,41.53
2019-05-22T21:17:41.323Z,42.90
2019-05-22T21:20:15.751Z,43.55
2019-05-22T21:22:45.925Z,39.90
2019-05-22T21:25:15.891Z,43.42
2019-05-22T21:27:45.836Z,42.80
2019-05-22T21:30:16.205Z,43.25
2019-05-22T21:32:45.695Z,39.65
2019-05-22T21:35:17.072Z,40.60
2019-05-22T21:37:46.775Z,35.35
2019-05-22T21:40:19.123Z,40.70
2019-05-22T21:42:49.157Z,39.55
2019-05-22T21:45:19.406Z,35.00
2019-05-22T21:47:48.839Z,37.83
2019-05-22T21:50:19.218Z,36.77
2019-05-22T21:52:48.866Z,41.55
2019-05-22T21:55:20.700Z,36.95
2019-05-22T22:00:41.133Z,33.55
2019-05-22T22:03:13.448Z,35.25
2019-05-22T22:05:43.552Z,34.50
2019-05-22T22:08:14.043Z,34.53
2019-05-22T22:10:43.799Z,31.45
2019-05-22T22:13:13.664Z,32.28
2019-05-22T22:15:46.151Z,35.85
2019-05-22T22:18:15.981Z,36.53
2019-05-22T22:20:45.680Z,34.30
2019-05-22T22:23:16.424Z,28.62
2019-05-22T22:25:46.167Z,31.45
2019-05-22T22:28:17.675Z,34.25
2019-05-22T22:30:51.461Z,36.10
2019-05-22T22:33:23.888Z,38.25
2019-05-22T22:35:54.461Z,31.45
2019-05-22T22:38:26.045Z,28.77
2019-05-22T22:40:57.478Z,29.55
2019-05-22T22:43:30.590Z,27.25
2019-05-22T22:46:06.903Z,27.62
2019-05-22T22:48:38.174Z,32.00
2019-05-22T22:51:12.075Z,27.65
2019-05-22T22:53:43.787Z,27.65
2019-05-22T22:56:13.678Z,26.73
2019-05-22T22:58:43.650Z,28.05
2019-05-22T23:01:18.952Z,27.42
2019-05-22T23:03:50.853Z,33.75
2019-05-22T23:06:20.677Z,30.72
2019-05-22T23:08:51.818Z,30.95
2019-05-22T23:11:22.608Z,32.88
2019-05-22T23:13:52.783Z,30.23
2019-05-22T23:16:23.480Z,36.38
2019-05-22T23:19:15.819Z,28.42
2019-05-22T23:21:45.417Z,31.93
2019-05-22T23:24:16.639Z,29.85
2019-05-22T23:26:45.974Z,31.27
2019-05-22T23:29:15.614Z,30.23
2019-05-22T23:31:45.113Z,32.90
2019-05-22T23:34:14.823Z,32.55
2019-05-22T23:36:45.226Z,32.00
2019-05-22T23:39:17.666Z,27.30
2019-05-22T23:41:48.499Z,28.40
2019-05-22T23:44:21.547Z,29.63
2019-05-22T23:49:20.263Z,31.07
2019-05-22T23:51:50.672Z,34.63
2019-05-22T23:54:20.780Z,27.85
2019-05-22T23:56:51.928Z,33.55
2019-05-22T23:59:21.272Z,30.05
